Time;durP1;ratioP1;P1;durP2;ratioP2;P2;SDS_P1;SDS_P2;PMS_P1;PMS_P2;Temp;Humidity;BMP_temperature;BMP_pressure;BME280_temperature;BME280_humidity;BME280_pressure;Samples;Min_cycle;Max_cycle;Signal;HPM_P1;HPM_P2
2023/06/04 00:00:25;;;;;;;0.30;0.30;;;;;;;18.03;100.00;100042.09;5012892;28;20033;-94
2023/06/04 00:02:50;;;;;;;0.32;0.32;;;;;;;17.94;100.00;100041.44;4995289;28;20029;-93
2023/06/04 00:05:16;;;;;;;0.45;0.45;;;;;;;17.93;100.00;100048.31;5009956;28;20544;-94
2023/06/04 00:07:41;;;;;;;0.47;0.35;;;;;;;17.87;100.00;100034.22;5012143;28;20038;-93
2023/06/04 00:10:07;;;;;;;0.85;0.63;;;;;;;17.87;100.00;100025.03;5011745;28;20441;-93
2023/06/04 00:12:33;;;;;;;0.45;0.45;;;;;;;17.95;100.00;100051.41;4992860;28;20046;-94
2023/06/04 00:14:59;;;;;;;1.35;0.60;;;;;;;17.92;100.00;100043.94;4997604;28;20037;-94
2023/06/04 00:17:24;;;;;;;1.05;0.73;;;;;;;17.89;100.00;100039.31;4996768;28;20493;-95
2023/06/04 00:19:50;;;;;;;0.80;0.77;;;;;;;17.78;100.00;100033.53;5008149;28;20040;-95
2023/06/04 00:22:15;;;;;;;0.32;0.32;;;;;;;17.80;100.00;100025.41;5012935;28;20044;-94
2023/06/04 00:24:41;;;;;;;0.45;0.45;;;;;;;17.89;100.00;100034.47;4995608;28;20033;-94
2023/06/04 00:27:08;;;;;;;0.65;0.65;;;;;;;17.84;100.00;100029.56;5005290;28;20026;-94
2023/06/04 00:29:33;;;;;;;0.50;0.50;;;;;;;17.75;100.00;100014.88;4993255;28;20130;-93
2023/06/04 00:31:59;;;;;;;0.32;0.15;;;;;;;17.80;100.00;100033.81;5012021;28;20041;-93
2023/06/04 00:34:24;;;;;;;0.82;0.65;;;;;;;17.67;100.00;100020.13;4993870;28;20037;-94
2023/06/04 00:36:50;;;;;;;1.13;0.98;;;;;;;17.51;100.00;100015.75;5003535;28;20038;-93
2023/06/04 00:39:16;;;;;;;1.40;1.20;;;;;;;17.54;100.00;100036.44;5007966;28;20044;-93
2023/06/04 00:41:41;;;;;;;1.38;1.02;;;;;;;17.43;100.00;100013.84;4995305;28;20064;-92
2023/06/04 00:44:07;;;;;;;0.65;0.65;;;;;;;17.48;100.00;100027.94;4984284;28;20041;-92
2023/06/04 00:46:33;;;;;;;0.65;0.57;;;;;;;17.50;100.00;100025.44;5030543;28;20211;-93
2023/06/04 00:48:59;;;;;;;0.95;0.80;;;;;;;17.59;100.00;100033.75;5028637;28;20120;-93
2023/06/04 00:51:25;;;;;;;0.70;0.70;;;;;;;17.51;100.00;100012.94;5008965;28;20612;-93
2023/06/04 00:53:51;;;;;;;0.30;0.30;;;;;;;17.63;100.00;100033.56;5000545;28;20029;-93
2023/06/04 00:56:17;;;;;;;0.10;0.10;;;;;;;17.66;100.00;100032.59;5012581;28;20287;-94
2023/06/04 00:58:44;;;;;;;0.10;0.10;;;;;;;17.63;100.00;100028.72;5009507;28;20040;-93
2023/06/04 01:06:39;;;;;;;0.30;0.30;;;;;;;17.54;100.00;100012.00;1329188;26;20419;-92
2023/06/04 01:09:06;;;;;;;0.22;0.22;;;;;;;17.63;100.00;100028.72;5006731;28;20030;-94
2023/06/04 01:11:32;;;;;;;0.70;0.30;;;;;;;17.52;100.00;100014.50;5009038;28;20087;-92
2023/06/04 01:13:58;;;;;;;0.20;0.20;;;;;;;17.49;100.00;100011.88;5008281;28;20038;-93
2023/06/04 01:16:28;;;;;;;0.90;0.30;;;;;;;17.46;100.00;100004.44;4995020;28;20029;-94
2023/06/04 01:18:59;;;;;;;0.45;0.35;;;;;;;17.54;100.00;100014.00;4993883;28;20044;-94
2023/06/04 01:21:28;;;;;;;0.80;0.77;;;;;;;17.44;100.00;100004.94;4990544;28;20040;-93
2023/06/04 01:24:00;;;;;;;0.57;0.57;;;;;;;17.44;100.00;100009.75;5009563;28;20552;-92
2023/06/04 01:26:28;;;;;;;0.08;0.08;;;;;;;17.21;100.00;100000.22;4996390;28;20051;-93
2023/06/04 01:28:56;;;;;;;0.80;0.60;;;;;;;17.31;100.00;100017.72;4994338;28;20384;-93
2023/06/04 01:31:22;;;;;;;0.40;0.35;;;;;;;17.33;100.00;100023.59;4994207;28;20045;-93
2023/06/04 01:33:55;;;;;;;0.88;0.60;;;;;;;17.36;100.00;100037.41;4993748;28;20041;-93
2023/06/04 01:36:21;;;;;;;0.57;0.57;;;;;;;17.30;100.00;100016.94;5011131;28;20555;-93
2023/06/04 01:38:47;;;;;;;0.10;0.10;;;;;;;17.39;100.00;100028.03;5010494;28;20037;-94
2023/06/04 01:41:12;;;;;;;0.30;0.30;;;;;;;17.28;100.00;100011.03;5027078;28;20022;-94
2023/06/04 01:43:38;;;;;;;1.02;1.02;;;;;;;17.35;100.00;100019.03;5007446;28;20120;-94
2023/06/04 01:46:03;;;;;;;1.40;0.63;;;;;;;17.26;100.00;100019.16;4993378;28;20045;-93
2023/06/04 01:48:29;;;;;;;2.20;0.70;;;;;;;17.26;100.00;100019.16;5027934;28;20033;-93
2023/06/04 01:50:56;;;;;;;0.25;0.25;;;;;;;17.32;100.00;100025.63;4990559;28;20566;-94
2023/06/04 01:53:21;;;;;;;0.40;0.40;;;;;;;17.30;100.00;100021.75;5021103;28;20121;-92
2023/06/04 01:55:49;;;;;;;0.13;0.13;;;;;;;17.27;100.00;100026.28;4981612;28;20120;-94
2023/06/04 01:58:22;;;;;;;0.73;0.73;;;;;;;17.30;100.00;100028.16;5007765;28;20030;-93
2023/06/04 02:00:49;;;;;;;0.60;0.45;;;;;;;17.35;100.00;100033.06;5026759;28;20064;-93
2023/06/04 02:03:15;;;;;;;0.70;0.43;;;;;;;17.27;100.00;100028.34;5005211;28;20073;-93
2023/06/04 02:05:44;;;;;;;1.50;0.40;;;;;;;17.22;100.00;100022.16;5023627;28;20037;-92
2023/06/04 02:08:11;;;;;;;0.80;0.75;;;;;;;17.19;100.00;100025.13;4996794;28;20489;-93
2023/06/04 02:10:36;;;;;;;1.40;1.23;;;;;;;17.16;100.00;100028.91;4986356;28;20042;-93
2023/06/04 02:13:03;;;;;;;0.20;0.20;;;;;;;17.03;100.00;100022.78;5002127;28;20056;-93
2023/06/04 02:15:29;;;;;;;0.30;0.30;;;;;;;17.07;100.00;100028.97;4991326;28;20029;-94
2023/06/04 02:18:02;;;;;;;0.80;0.32;;;;;;;17.14;100.00;100031.44;4984224;28;20516;-92
2023/06/04 02:20:28;;;;;;;2.25;0.47;;;;;;;17.11;100.00;100026.75;5022653;28;20436;-92
2023/06/04 02:22:57;;;;;;;1.52;0.75;;;;;;;17.22;100.00;100029.78;4990167;28;20060;-93
2023/06/04 02:25:25;;;;;;;1.38;0.47;;;;;;;17.18;100.00;100029.22;5002130;28;20515;-93
2023/06/04 02:27:51;;;;;;;0.93;0.77;;;;;;;17.18;100.00;100029.22;4990946;28;20034;-92
2023/06/04 02:30:17;;;;;;;0.80;0.80;;;;;;;17.15;100.00;100028.13;5005868;28;20022;-92
2023/06/04 02:32:44;;;;;;;0.60;0.60;;;;;;;17.12;100.00;100033.94;4989435;28;20038;-93
2023/06/04 02:35:10;;;;;;;1.25;1.10;;;;;;;17.04;100.00;100024.34;5007464;28;20389;-93
2023/06/04 02:37:36;;;;;;;1.27;1.17;;;;;;;17.02;100.00;100029.69;4990185;28;20030;-93
2023/06/04 02:40:01;;;;;;;0.40;0.40;;;;;;;16.99;100.00;100033.41;5008796;28;20045;-93
2023/06/04 02:42:27;;;;;;;0.50;0.50;;;;;;;16.92;100.00;100019.78;5010563;28;20034;-92
2023/06/04 02:44:53;;;;;;;1.52;1.00;;;;;;;16.94;100.00;100029.28;5011313;28;20048;-93
2023/06/04 02:47:19;;;;;;;0.60;0.60;;;;;;;16.94;100.00;100028.50;4992828;28;20034;-93
2023/06/04 02:49:46;;;;;;;0.38;0.22;;;;;;;16.92;100.00;100028.97;5008654;28;20034;-93
2023/06/04 02:52:12;;;;;;;0.25;0.25;;;;;;;16.96;100.00;100020.38;5009714;28;20040;-93
2023/06/04 02:54:37;;;;;;;0.50;0.50;;;;;;;16.90;100.00;100023.09;4993472;28;20112;-93
2023/06/04 02:57:03;;;;;;;0.63;0.63;;;;;;;16.97;100.00;100038.75;4981816;28;20137;-93
2023/06/04 02:59:29;;;;;;;2.08;0.98;;;;;;;16.89;100.00;100032.75;4994336;28;20030;-92
2023/06/04 03:01:55;;;;;;;0.68;0.60;;;;;;;16.81;100.00;100025.19;5006550;28;20076;-93
2023/06/04 03:04:21;;;;;;;1.35;0.63;;;;;;;16.78;100.00;100033.28;4993838;28;20033;-93
2023/06/04 03:06:47;;;;;;;0.63;0.63;;;;;;;16.78;100.00;100036.09;4992482;28;20042;-92
2023/06/04 03:09:13;;;;;;;0.98;0.93;;;;;;;16.83;100.00;100051.47;5010439;28;20029;-92
2023/06/04 03:11:39;;;;;;;0.40;0.40;;;;;;;16.71;100.00;100030.09;5009514;28;20065;-92
2023/06/04 03:14:05;;;;;;;0.28;0.20;;;;;;;16.82;100.00;100043.56;5010903;28;20076;-92
2023/06/04 03:16:31;;;;;;;1.30;1.08;;;;;;;16.81;100.00;100047.59;5009867;28;20030;-93
2023/06/04 03:18:56;;;;;;;0.35;0.32;;;;;;;16.92;100.00;100064.63;4993839;28;20076;-91
2023/06/04 03:21:24;;;;;;;0.20;0.20;;;;;;;16.82;100.00;100051.97;4996997;28;20034;-92
2023/06/04 03:23:51;;;;;;;1.83;1.63;;;;;;;16.79;100.00;100057.25;5009001;28;20072;-93
2023/06/04 03:26:16;;;;;;;0.63;0.63;;;;;;;16.72;100.00;100046.41;5011647;28;20030;-93
2023/06/04 03:28:42;;;;;;;0.73;0.73;;;;;;;16.88;100.00;100070.41;5004910;28;20029;-92
2023/06/04 03:31:10;;;;;;;0.15;0.15;;;;;;;16.77;100.00;100064.59;5009015;28;20061;-92
2023/06/04 03:33:36;;;;;;;0.60;0.57;;;;;;;16.77;100.00;100059.78;5010328;28;20026;-92
2023/06/04 03:36:02;;;;;;;1.10;1.00;;;;;;;16.76;100.00;100055.41;5011156;28;20499;-93
2023/06/04 03:38:28;;;;;;;0.52;0.52;;;;;;;16.71;100.00;100061.69;4992916;28;20041;-92
2023/06/04 03:40:54;;;;;;;0.47;0.47;;;;;;;16.81;100.00;100056.00;5024903;28;20021;-93
2023/06/04 03:43:20;;;;;;;0.45;0.30;;;;;;;16.82;97.75;100071.56;4992845;28;20046;-93
2023/06/04 03:45:46;;;;;;;0.20;0.20;;;;;;;16.76;97.74;100061.03;5002376;28;20481;-92
2023/06/04 03:48:12;;;;;;;2.05;0.88;;;;;;;16.83;96.61;100068.28;5006259;28;20084;-92
2023/06/04 03:50:38;;;;;;;0.20;0.20;;;;;;;16.79;93.31;100062.84;5008791;28;20026;-93
2023/06/04 03:53:04;;;;;;;1.17;1.05;;;;;;;16.89;93.01;100082.41;4974201;28;20027;-92
2023/06/04 03:55:34;;;;;;;1.95;0.98;;;;;;;16.79;91.84;100068.47;4987492;28;20409;-93
2023/06/04 03:58:01;;;;;;;0.40;0.40;;;;;;;16.90;91.87;100089.56;4999441;28;20061;-93
2023/06/04 04:00:27;;;;;;;1.23;0.30;;;;;;;16.92;91.66;100092.63;4993036;28;20040;-93
2023/06/04 04:02:56;;;;;;;1.75;1.55;;;;;;;16.77;89.83;100082.19;4993349;28;20587;-92
2023/06/04 04:05:28;;;;;;;0.45;0.45;;;;;;;16.83;84.31;100095.50;5009520;28;20041;-93
2023/06/04 04:07:53;;;;;;;1.98;0.52;;;;;;;16.66;86.40;100070.72;5008383;28;20409;-92
2023/06/04 04:10:24;;;;;;;0.20;0.20;;;;;;;16.71;85.31;100084.09;4985336;28;20034;-92
2023/06/04 04:12:51;;;;;;;0.10;0.10;;;;;;;16.71;84.87;100084.09;5008819;28;20037;-93
2023/06/04 04:15:19;;;;;;;0.10;0.10;;;;;;;16.80;84.65;100097.25;5006288;28;20624;-93
2023/06/04 04:17:45;;;;;;;0.35;0.35;;;;;;;16.78;85.02;100089.31;5008499;28;20045;-93
2023/06/04 04:20:11;;;;;;;0.22;0.22;;;;;;;16.77;83.71;100076.56;4992578;28;20031;-94
2023/06/04 04:22:42;;;;;;;0.00;0.00;;;;;;;16.75;84.49;100084.69;5024516;28;20080;-95
2023/06/04 04:25:09;;;;;;;2.17;1.17;;;;;;;16.65;84.65;100080.41;4991715;28;20052;-92
2023/06/04 04:27:38;;;;;;;0.45;0.45;;;;;;;16.59;85.15;100073.13;5007686;28;20088;-94
2023/06/04 04:30:07;;;;;;;1.38;1.27;;;;;;;16.67;85.86;100094.69;5025304;28;20080;-93
2023/06/04 04:32:33;;;;;;;0.80;0.50;;;;;;;16.49;86.39;100072.41;4992903;28;20026;-93
2023/06/04 04:35:00;;;;;;;3.92;0.55;;;;;;;16.60;86.43;100078.25;5029895;28;20030;-93
2023/06/04 04:37:32;;;;;;;1.42;1.10;;;;;;;16.73;85.89;100098.41;5008948;28;20030;-94
2023/06/04 04:39:58;;;;;;;0.82;0.73;;;;;;;16.72;85.78;100090.47;4992336;28;20034;-93
2023/06/04 04:42:26;;;;;;;0.30;0.30;;;;;;;16.86;84.52;100105.78;5000631;28;20088;-92
2023/06/04 04:44:52;;;;;;;0.68;0.65;;;;;;;17.03;83.12;100107.63;5007567;28;20042;-93
2023/06/04 04:47:21;;;;;;;0.20;0.20;;;;;;;17.16;81.24;100113.00;4987648;28;20030;-93
2023/06/04 04:49:49;;;;;;;0.10;0.10;;;;;;;17.22;78.65;100094.25;4998604;28;20026;-93
2023/06/04 04:52:15;;;;;;;0.00;0.00;;;;;;;17.29;75.23;100104.31;5007080;28;20042;-93
2023/06/04 04:54:41;;;;;;;0.10;0.05;;;;;;;17.28;73.27;100106.34;5008203;28;20033;-94
2023/06/04 04:57:07;;;;;;;0.30;0.20;;;;;;;17.21;72.26;100099.09;5008940;28;20389;-92
2023/06/04 04:59:34;;;;;;;0.30;0.30;;;;;;;17.28;72.95;100075.50;5009113;28;20068;-92
2023/06/04 05:02:00;;;;;;;0.20;0.20;;;;;;;17.20;70.42;100083.53;4991017;28;20026;-93
2023/06/04 05:04:26;;;;;;;0.17;0.17;;;;;;;17.27;68.44;100079.56;5006667;28;20046;-93
2023/06/04 05:06:52;;;;;;;0.45;0.45;;;;;;;17.38;69.11;100102.22;5007065;28;20448;-93
2023/06/04 05:09:17;;;;;;;0.88;0.38;;;;;;;17.22;66.88;100077.44;4991549;28;20038;-92
2023/06/04 05:11:44;;;;;;;3.30;1.05;;;;;;;17.14;66.31;100073.47;5026638;28;20034;-95
2023/06/04 05:14:10;;;;;;;0.00;0.00;;;;;;;17.25;65.03;100104.50;5007270;28;20080;-94
2023/06/04 05:16:37;;;;;;;0.45;0.45;;;;;;;17.21;63.91;100101.13;4990929;28;20058;-93
2023/06/04 05:19:04;;;;;;;0.28;0.28;;;;;;;17.17;64.87;100097.72;5001267;28;20177;-91
2023/06/04 05:21:33;;;;;;;0.45;0.28;;;;;;;16.96;64.17;100071.59;5021918;28;20064;-94
2023/06/04 05:24:03;;;;;;;0.45;0.45;;;;;;;16.98;65.81;100079.53;4988370;28;20045;-91
2023/06/04 05:26:33;;;;;;;0.50;0.50;;;;;;;17.04;65.74;100081.19;5008531;28;20034;-92
2023/06/04 05:29:04;;;;;;;0.00;0.00;;;;;;;17.18;63.36;100104.88;4992995;28;20091;-91
2023/06/04 05:31:34;;;;;;;0.10;0.10;;;;;;;17.00;62.96;100088.22;4990172;28;20034;-92
2023/06/04 05:34:01;;;;;;;0.55;0.43;;;;;;;17.12;63.81;100095.59;4989826;28;20140;-91
2023/06/04 05:36:30;;;;;;;0.85;0.45;;;;;;;17.21;63.29;100120.75;5005661;28;20038;-91
2023/06/04 05:38:59;;;;;;;0.00;0.00;;;;;;;17.23;64.17;100107.00;5006913;28;20105;-92
2023/06/04 05:41:31;;;;;;;0.50;0.50;;;;;;;17.30;63.40;100120.66;5005672;28;20053;-92
2023/06/04 05:43:58;;;;;;;0.08;0.08;;;;;;;17.36;63.67;100127.13;4993940;28;20493;-92
2023/06/04 05:46:23;;;;;;;0.25;0.17;;;;;;;17.35;63.76;100119.97;4989902;28;20033;-91
2023/06/04 05:48:50;;;;;;;0.20;0.20;;;;;;;17.32;62.93;100104.13;4989634;28;20042;-93
2023/06/04 05:51:17;;;;;;;0.17;0.17;;;;;;;17.54;62.83;100121.38;5000854;28;20077;-92
2023/06/04 05:53:43;;;;;;;0.15;0.08;;;;;;;17.40;61.06;100102.47;5006713;28;20789;-92
2023/06/04 05:56:09;;;;;;;0.32;0.28;;;;;;;17.63;60.34;100131.75;4988336;28;20122;-93
2023/06/04 05:58:34;;;;;;;0.17;0.17;;;;;;;17.66;60.96;100119.56;5001106;28;20036;-93
2023/06/04 06:01:03;;;;;;;0.98;0.80;;;;;;;17.80;60.58;100126.41;4988129;28;20034;-93
2023/06/04 06:03:28;;;;;;;0.40;0.40;;;;;;;17.83;60.96;100115.00;4997983;28;20042;-92
2023/06/04 06:05:56;;;;;;;0.28;0.28;;;;;;;18.14;61.16;100145.34;4987289;28;20445;-95
2023/06/04 06:08:22;;;;;;;0.30;0.30;;;;;;;18.08;60.08;100102.38;5018976;28;20112;-93
2023/06/04 06:10:48;;;;;;;0.10;0.10;;;;;;;18.14;59.98;100117.28;4986446;28;20033;-94
2023/06/04 06:13:13;;;;;;;0.10;0.10;;;;;;;18.28;59.52;100124.88;5003847;28;20041;-95
2023/06/04 06:15:39;;;;;;;0.00;0.00;;;;;;;18.26;56.67;100113.38;4986274;28;20022;-95
2023/06/04 06:18:05;;;;;;;3.10;1.15;;;;;;;18.29;56.85;100134.88;5006527;28;20038;-94
2023/06/04 06:20:31;;;;;;;0.20;0.20;;;;;;;18.20;56.08;100132.16;5003526;28;20168;-94
2023/06/04 06:23:00;;;;;;;0.10;0.10;;;;;;;18.12;55.59;100131.00;4986389;28;20042;-95
2023/06/04 06:25:28;;;;;;;0.80;0.60;;;;;;;18.06;56.83;100128.13;5001560;28;20516;-93
2023/06/04 06:28:02;;;;;;;0.73;0.43;;;;;;;18.20;57.35;100128.59;4989906;28;20030;-93
2023/06/04 06:30:28;;;;;;;0.00;0.00;;;;;;;18.46;53.84;100137.91;5003839;28;20485;-93
2023/06/04 06:32:53;;;;;;;2.53;0.88;;;;;;;18.64;52.11;100138.47;5005696;28;20029;-93
2023/06/04 06:35:19;;;;;;;0.95;0.65;;;;;;;18.73;51.92;100150.81;5005564;28;20113;-95
2023/06/04 06:37:44;;;;;;;0.35;0.30;;;;;;;18.68;50.52;100149.50;5007767;28;20332;-93
2023/06/04 06:40:10;;;;;;;0.40;0.40;;;;;;;18.64;49.15;100132.84;5005728;28;20030;-91
2023/06/04 06:42:36;;;;;;;1.30;1.20;;;;;;;18.62;50.55;100143.81;5007564;28;20069;-93
2023/06/04 06:45:01;;;;;;;0.30;0.30;;;;;;;18.70;50.71;100157.44;5001293;28;20034;-92
2023/06/04 06:47:27;;;;;;;1.17;0.40;;;;;;;18.64;49.35;100144.06;4997043;28;20054;-93
2023/06/04 06:49:53;;;;;;;0.40;0.35;;;;;;;18.71;48.09;100150.56;5004915;28;20117;-94
2023/06/04 06:52:19;;;;;;;0.10;0.10;;;;;;;18.80;48.84;100139.97;5003614;28;20109;-91
2023/06/04 06:54:45;;;;;;;0.15;0.15;;;;;;;18.94;48.58;100149.59;4999757;28;20084;-91
2023/06/04 06:57:11;;;;;;;1.05;0.73;;;;;;;19.12;48.70;100132.44;5007128;28;20128;-91
2023/06/04 06:59:37;;;;;;;0.00;0.00;;;;;;;19.33;48.87;100150.81;5008449;28;20026;-93
2023/06/04 07:02:03;;;;;;;0.00;0.00;;;;;;;19.28;48.86;100134.66;4987738;28;20342;-93
2023/06/04 07:04:29;;;;;;;0.08;0.08;;;;;;;19.35;49.50;100134.22;5006682;28;20415;-91
2023/06/04 07:06:54;;;;;;;0.20;0.20;;;;;;;19.58;48.42;100145.72;4995450;28;20038;-93
2023/06/04 07:09:23;;;;;;;1.02;0.57;;;;;;;19.62;48.30;100140.66;4982776;28;20076;-93
2023/06/04 07:11:48;;;;;;;0.08;0.08;;;;;;;19.71;47.03;100155.34;5007497;28;20038;-93
2023/06/04 07:14:14;;;;;;;1.15;0.32;;;;;;;19.76;46.43;100143.38;4994864;28;20120;-94
2023/06/04 07:16:40;;;;;;;0.15;0.10;;;;;;;20.28;46.01;100138.41;4999528;28;20038;-94
2023/06/04 07:19:06;;;;;;;0.70;0.40;;;;;;;20.78;45.20;100160.53;4986051;28;20478;-93
2023/06/04 07:21:31;;;;;;;0.43;0.25;;;;;;;20.75;43.19;100162.28;5004693;28;20330;-94
2023/06/04 07:23:57;;;;;;;0.40;0.40;;;;;;;20.88;43.59;100153.38;4974475;28;20060;-94
2023/06/04 07:26:22;;;;;;;0.20;0.20;;;;;;;21.10;42.75;100169.66;4994840;28;20053;-94
2023/06/04 07:28:48;;;;;;;0.03;0.03;;;;;;;21.33;42.71;100172.06;5015661;28;20022;-93
2023/06/04 07:31:17;;;;;;;0.20;0.20;;;;;;;21.51;42.57;100170.84;5032286;28;20517;-93
2023/06/04 07:33:43;;;;;;;0.70;0.45;;;;;;;21.65;41.13;100157.78;5022653;28;20025;-94
2023/06/04 07:36:15;;;;;;;2.65;0.35;;;;;;;21.31;40.81;100160.50;5015551;28;20044;-94
2023/06/04 07:38:42;;;;;;;0.47;0.47;;;;;;;21.09;41.74;100170.91;4994948;28;20469;-94
2023/06/04 07:41:08;;;;;;;0.45;0.45;;;;;;;20.71;42.31;100144.84;5012056;28;20386;-95
2023/06/04 07:43:35;;;;;;;0.28;0.28;;;;;;;20.86;42.64;100164.41;5011124;28;20420;-95
2023/06/04 07:46:01;;;;;;;0.05;0.05;;;;;;;20.87;42.78;100163.13;5011948;28;20033;-94
2023/06/04 07:48:30;;;;;;;0.40;0.40;;;;;;;20.82;42.48;100158.25;4996279;28;20026;-93
2023/06/04 07:50:57;;;;;;;0.17;0.17;;;;;;;20.57;43.30;100153.47;5010298;28;20038;-94
2023/06/04 07:53:23;;;;;;;1.27;0.47;;;;;;;20.45;43.16;100150.59;5010373;28;20389;-95
2023/06/04 07:55:49;;;;;;;0.50;0.40;;;;;;;20.52;44.28;100154.22;5028655;28;20374;-94
2023/06/04 07:58:15;;;;;;;0.08;0.08;;;;;;;20.65;44.20;100163.00;4995230;28;20038;-95
2023/06/04 08:00:41;;;;;;;0.30;0.20;;;;;;;20.94;44.46;100162.66;4978731;28;20470;-94
2023/06/04 08:03:06;;;;;;;0.05;0.05;;;;;;;21.11;43.28;100176.84;4989394;28;20096;-94
2023/06/04 08:05:32;;;;;;;0.10;0.10;;;;;;;21.05;42.31;100190.13;4977570;28;20026;-95
2023/06/04 08:07:58;;;;;;;0.68;0.68;;;;;;;20.89;42.80;100161.34;4990891;28;20054;-94
2023/06/04 08:10:23;;;;;;;0.08;0.08;;;;;;;21.26;42.38;100188.72;4998039;28;20048;-94
2023/06/04 08:12:49;;;;;;;0.13;0.13;;;;;;;20.91;42.26;100169.28;5006745;28;20077;-95
2023/06/04 08:15:15;;;;;;;0.90;0.75;;;;;;;21.10;41.98;100184.53;5002795;28;20030;-92
2023/06/04 08:17:41;;;;;;;0.20;0.20;;;;;;;21.03;43.04;100179.34;5011529;28;20272;-93
2023/06/04 08:20:07;;;;;;;0.20;0.20;;;;;;;21.29;43.33;100170.78;4993237;28;20261;-95
2023/06/04 08:22:35;;;;;;;0.30;0.20;;;;;;;21.42;42.61;100178.78;5008114;28;20065;-92
2023/06/04 08:25:01;;;;;;;0.15;0.15;;;;;;;21.28;42.82;100181.28;5019978;28;20081;-93
2023/06/04 08:27:27;;;;;;;0.32;0.32;;;;;;;21.42;42.78;100173.13;4989660;28;20520;-93
2023/06/04 08:29:53;;;;;;;1.55;1.08;;;;;;;21.43;42.58;100177.50;5003676;28;20061;-93
2023/06/04 08:32:18;;;;;;;0.25;0.20;;;;;;;21.58;43.90;100173.16;4987862;28;20046;-93
2023/06/04 08:34:44;;;;;;;0.30;0.30;;;;;;;21.69;43.23;100181.66;5011029;28;20053;-93
2023/06/04 08:37:10;;;;;;;0.43;0.43;;;;;;;21.69;51.15;100161.13;5000480;28;20073;-93
2023/06/04 08:39:36;;;;;;;0.38;0.38;;;;;;;21.96;46.32;100156.84;5003729;28;20030;-92
2023/06/04 08:42:07;;;;;;;0.15;0.15;;;;;;;22.14;44.56;100142.94;5002442;28;20034;-96
2023/06/04 08:44:42;;;;;;;0.75;0.68;;;;;;;22.13;45.09;100152.72;5025889;28;20031;-96
2023/06/04 08:47:12;;;;;;;1.20;0.65;;;;;;;21.98;43.19;100126.78;5036100;28;20030;-96
2023/06/04 08:49:41;;;;;;;1.55;0.77;;;;;;;22.09;44.51;100134.47;5001981;28;20040;-96
2023/06/04 08:52:21;;;;;;;0.32;0.32;;;;;;;22.39;43.75;100134.72;5001488;28;20046;-96
2023/06/04 08:54:58;;;;;;;0.13;0.13;;;;;;;23.03;43.25;100165.41;5050503;28;20042;-96
2023/06/04 10:51:38;;;;;;;2.85;0.98;;;;;;;25.97;41.09;100135.47;4927579;28;20044;-94
2023/06/04 10:54:04;;;;;;;0.77;0.45;;;;;;;26.30;38.43;100134.16;4907983;28;20512;-94
2023/06/04 10:56:37;;;;;;;0.32;0.32;;;;;;;26.15;38.94;100136.72;4909523;28;20063;-93
2023/06/04 10:59:14;;;;;;;0.35;0.35;;;;;;;25.62;39.62;100138.63;4903303;28;20047;-93
2023/06/04 11:01:40;;;;;;;0.22;0.22;;;;;;;26.19;39.69;100132.28;4904860;28;20036;-94
2023/06/04 11:04:05;;;;;;;0.70;0.70;;;;;;;26.76;38.81;100113.63;4917540;28;20035;-92
2023/06/04 11:06:32;;;;;;;1.20;1.00;;;;;;;27.25;38.34;100121.69;4879865;28;20036;-93
2023/06/04 11:09:03;;;;;;;0.30;0.30;;;;;;;27.69;36.87;100129.25;4879236;28;20062;-93
2023/06/04 11:11:29;;;;;;;0.40;0.35;;;;;;;27.78;36.56;100131.63;4952019;28;20041;-94
2023/06/04 11:13:55;;;;;;;1.30;1.15;;;;;;;27.33;36.76;100119.72;4894990;28;20051;-93
2023/06/04 11:16:21;;;;;;;0.38;0.38;;;;;;;26.62;37.83;100097.88;4910677;28;20028;-92
2023/06/04 11:18:57;;;;;;;0.40;0.20;;;;;;;27.13;38.95;100120.41;4911609;28;20044;-92
2023/06/04 11:21:25;;;;;;;1.17;0.90;;;;;;;27.31;38.54;100128.03;4909718;28;20036;-94
2023/06/04 11:23:58;;;;;;;0.35;0.35;;;;;;;27.67;37.05;100126.19;4892690;28;20658;-93
2023/06/04 11:26:34;;;;;;;0.40;0.40;;;;;;;27.52;36.05;100120.34;4892588;28;20123;-93
2023/06/04 11:29:00;;;;;;;0.40;0.40;;;;;;;27.36;37.33;100118.59;4895935;28;20044;-92
2023/06/04 11:31:26;;;;;;;0.52;0.52;;;;;;;27.54;37.07;100129.06;4910002;28;20098;-93
2023/06/04 11:33:52;;;;;;;0.10;0.10;;;;;;;27.09;37.74;100128.53;4902351;28;20036;-94
2023/06/04 11:36:30;;;;;;;0.28;0.28;;;;;;;26.75;37.71;100129.19;4911160;28;20032;-92
2023/06/04 11:39:01;;;;;;;1.48;0.88;;;;;;;26.49;39.31;100109.25;4976530;28;20083;-94
2023/06/04 11:41:28;;;;;;;0.50;0.28;;;;;;;26.44;39.54;100122.28;4882046;28;20028;-93
2023/06/04 11:43:53;;;;;;;1.55;1.00;;;;;;;26.67;38.80;100125.44;4909870;28;20079;-93
2023/06/04 11:46:19;;;;;;;1.60;0.50;;;;;;;26.65;38.94;100113.84;4895019;28;20052;-93
2023/06/04 11:48:45;;;;;;;0.47;0.47;;;;;;;26.89;39.04;100113.63;4910135;28;20505;-93
2023/06/04 11:51:12;;;;;;;0.50;0.50;;;;;;;27.24;38.65;100112.38;4878665;28;20054;-93
2023/06/04 11:53:38;;;;;;;0.10;0.10;;;;;;;27.25;36.71;100104.63;4894146;28;20040;-93
2023/06/04 11:56:04;;;;;;;0.60;0.60;;;;;;;26.72;37.93;100107.50;4892760;28;20064;-93
2023/06/04 11:58:32;;;;;;;0.65;0.60;;;;;;;26.80;38.21;100096.22;4893711;28;20177;-94
2023/06/04 12:00:58;;;;;;;0.88;0.88;;;;;;;26.77;38.81;100111.56;4915291;28;20076;-94
2023/06/04 12:03:38;;;;;;;0.43;0.43;;;;;;;27.16;38.08;100096.53;4895814;28;20036;-94
2023/06/04 12:06:17;;;;;;;0.50;0.50;;;;;;;27.41;37.02;100092.09;4908955;28;20500;-94
2023/06/04 12:08:53;;;;;;;0.82;0.77;;;;;;;27.48;36.43;100084.94;4932093;28;20203;-94
2023/06/04 12:11:32;;;;;;;0.38;0.35;;;;;;;27.45;37.11;100092.50;4894168;28;20039;-94
2023/06/04 12:14:05;;;;;;;2.88;1.40;;;;;;;27.16;37.44;100090.84;4889526;28;20070;-95
2023/06/04 12:16:31;;;;;;;0.10;0.10;;;;;;;27.68;37.66;100081.34;4882736;28;20040;-93
2023/06/04 12:19:07;;;;;;;8.23;0.80;;;;;;;28.33;35.88;100080.22;4925271;28;20032;-94
2023/06/04 12:21:32;;;;;;;0.30;0.20;;;;;;;28.37;35.81;100082.72;4924705;28;20036;-92
2023/06/04 12:24:08;;;;;;;0.30;0.30;;;;;;;28.29;36.47;100088.38;4909005;28;20036;-93
2023/06/04 12:26:37;;;;;;;0.77;0.73;;;;;;;28.37;36.83;100072.06;4893863;28;20064;-93
2023/06/04 12:29:10;;;;;;;0.30;0.30;;;;;;;28.31;36.59;100084.97;4938000;28;20051;-93
2023/06/04 12:31:36;;;;;;;0.68;0.68;;;;;;;27.89;36.50;100089.91;4909456;28;20230;-93
2023/06/04 12:34:02;;;;;;;0.35;0.32;;;;;;;27.32;38.32;100064.06;4875358;28;20548;-93
2023/06/04 12:36:28;;;;;;;0.32;0.32;;;;;;;27.34;38.24;100081.34;4878118;28;20043;-93
2023/06/04 12:38:59;;;;;;;1.42;0.80;;;;;;;27.18;38.38;100091.03;4907678;28;20106;-93
2023/06/04 12:41:25;;;;;;;0.63;0.52;;;;;;;27.32;38.88;100075.44;4885772;28;20119;-93
2023/06/04 12:43:51;;;;;;;0.20;0.20;;;;;;;27.19;38.16;100069.78;4930467;28;20215;-94
2023/06/04 12:46:17;;;;;;;0.95;0.30;;;;;;;26.87;38.19;100065.06;4892795;28;20056;-93
2023/06/04 12:48:42;;;;;;;1.15;1.00;;;;;;;26.60;38.89;100083.44;4914605;28;20067;-93
2023/06/04 12:51:10;;;;;;;0.35;0.35;;;;;;;26.55;39.14;100092.06;4907322;28;20414;-93
2023/06/04 12:53:38;;;;;;;0.38;0.38;;;;;;;26.62;39.93;100089.34;4892730;28;20028;-94
2023/06/04 12:56:04;;;;;;;10.77;1.65;;;;;;;26.85;39.56;100092.53;4876891;28;20236;-92
2023/06/04 12:58:30;;;;;;;0.85;0.65;;;;;;;26.95;39.30;100084.31;4909007;28;20040;-92
2023/06/04 13:00:55;;;;;;;1.02;0.30;;;;;;;27.17;39.74;100072.44;4917927;28;20037;-92
2023/06/04 13:03:21;;;;;;;0.57;0.57;;;;;;;27.21;39.23;100078.56;4892537;28;20525;-94
2023/06/04 13:05:46;;;;;;;0.52;0.52;;;;;;;27.34;39.38;100075.66;4909522;28;20119;-92
2023/06/04 13:08:12;;;;;;;1.52;1.42;;;;;;;27.16;39.46;100068.81;4908695;28;20050;-93
2023/06/04 13:10:37;;;;;;;1.58;1.05;;;;;;;27.18;38.51;100063.31;4912574;28;20063;-93
2023/06/04 13:13:03;;;;;;;0.55;0.52;;;;;;;27.35;38.51;100069.41;4909725;28;20466;-93
2023/06/04 13:15:29;;;;;;;0.70;0.70;;;;;;;27.55;38.40;100067.94;4910103;28;20040;-92
2023/06/04 13:17:55;;;;;;;0.75;0.57;;;;;;;27.70;38.13;100053.81;4931452;28;20036;-92
2023/06/04 13:20:20;;;;;;;1.58;0.80;;;;;;;27.94;37.89;100069.84;4907326;28;20095;-92